createdAt,value
2018-09-14T00:01:27.131Z,61.13
2018-09-14T00:03:30.904Z,63.30
2018-09-14T00:05:34.531Z,65.00
2018-09-14T00:07:38.062Z,59.07
2018-09-14T00:09:41.701Z,70.43
2018-09-14T00:11:45.292Z,69.00
2018-09-14T00:13:48.849Z,68.77
2018-09-14T00:15:52.396Z,68.73
2018-09-14T00:17:55.953Z,70.10
2018-09-14T00:19:59.588Z,62.83
2018-09-14T00:22:03.167Z,68.70
2018-09-14T00:24:07.125Z,72.90
2018-09-14T00:26:11.085Z,70.70
2018-09-14T00:28:14.713Z,76.47
2018-09-14T00:30:18.319Z,71.20
2018-09-14T00:32:21.929Z,69.63
2018-09-14T00:34:25.539Z,69.77
2018-09-14T00:36:29.129Z,64.13
2018-09-14T00:38:32.682Z,62.33
2018-09-14T00:40:36.223Z,57.20
2018-09-14T00:42:39.813Z,61.53
2018-09-14T00:44:43.333Z,59.53
2018-09-14T00:46:47.130Z,62.83
2018-09-14T00:48:50.755Z,65.37
2018-09-14T00:50:54.374Z,64.00
2018-09-14T00:52:58.118Z,64.83
2018-09-14T00:55:01.651Z,64.37
2018-09-14T00:57:05.323Z,60.53
2018-09-14T00:59:08.892Z,63.77
2018-09-14T01:01:13.562Z,67.67
2018-09-14T01:03:17.511Z,62.70
2018-09-14T01:05:21.502Z,54.87
2018-09-14T01:07:25.093Z,60.17
2018-09-14T01:09:29.222Z,59.07
2018-09-14T01:11:32.873Z,54.63
2018-09-14T01:13:36.470Z,58.93
2018-09-14T01:15:40.407Z,60.20
2018-09-14T01:17:44.415Z,59.03
2018-09-14T01:19:48.392Z,59.17
2018-09-14T01:21:52.436Z,56.37
2018-09-14T01:23:56.022Z,53.20
2018-09-14T01:25:59.627Z,53.40
2018-09-14T01:28:03.210Z,53.67
2018-09-14T01:30:07.305Z,50.00
2018-09-14T01:32:10.864Z,55.47
2018-09-14T01:34:14.620Z,59.83
2018-09-14T01:36:19.265Z,51.13
2018-09-14T01:38:22.960Z,56.70
2018-09-14T01:40:26.551Z,54.37
2018-09-14T01:42:30.603Z,55.90
2018-09-14T01:44:34.232Z,54.93
2018-09-14T01:46:38.163Z,51.63
2018-09-14T01:48:42.381Z,53.23
2018-09-14T01:50:45.967Z,58.47
2018-09-14T01:52:49.568Z,56.60
2018-09-14T01:54:53.177Z,54.40
2018-09-14T01:56:56.676Z,58.27
2018-09-14T01:59:00.273Z,55.80
2018-09-14T02:01:03.836Z,52.27
2018-09-14T02:03:07.417Z,52.00
2018-09-14T02:05:10.990Z,58.83
2018-09-14T02:07:14.557Z,55.23
2018-09-14T02:09:18.181Z,59.87
2018-09-14T02:11:22.461Z,52.13
2018-09-14T02:13:26.482Z,48.60
2018-09-14T02:15:30.056Z,46.37
2018-09-14T02:17:34.023Z,48.90
2018-09-14T02:19:37.928Z,52.93
2018-09-14T02:21:41.564Z,51.63
2018-09-14T02:23:45.200Z,47.70
2018-09-14T02:25:48.785Z,52.20
2018-09-14T02:27:52.396Z,53.70
2018-09-14T02:29:56.444Z,52.53
2018-09-14T02:32:00.145Z,55.30
2018-09-14T02:34:03.777Z,51.43
2018-09-14T02:36:07.339Z,48.50
2018-09-14T02:38:10.950Z,44.93
2018-09-14T02:40:14.508Z,49.60
2018-09-14T02:42:22.059Z,46.93
2018-09-14T02:44:25.628Z,44.67
2018-09-14T02:46:29.614Z,43.50
2018-09-14T02:48:33.565Z,48.93
2018-09-14T02:50:37.081Z,46.83
2018-09-14T02:52:40.583Z,46.77
2018-09-14T02:54:44.770Z,49.60
2018-09-14T02:56:48.431Z,44.00
2018-09-14T02:58:51.989Z,44.87
2018-09-14T03:00:55.529Z,40.30
2018-09-14T03:02:59.898Z,42.67
2018-09-14T03:05:03.519Z,37.70
2018-09-14T03:07:07.074Z,37.93
2018-09-14T03:09:10.823Z,39.23
2018-09-14T03:11:14.441Z,38.83
2018-09-14T03:13:18.013Z,36.90
2018-09-14T03:15:21.612Z,31.47
2018-09-14T03:17:25.205Z,35.93
2018-09-14T03:19:28.823Z,35.83
2018-09-14T03:21:32.339Z,37.27
2018-09-14T03:23:35.937Z,34.47
2018-09-14T03:25:39.498Z,32.67
2018-09-14T03:27:43.094Z,36.57
2018-09-14T03:29:46.688Z,34.40
2018-09-14T03:31:50.249Z,33.03
2018-09-14T03:33:53.845Z,36.07
2018-09-14T03:35:57.396Z,32.73
2018-09-14T03:38:00.913Z,34.77
2018-09-14T03:40:04.860Z,31.43
2018-09-14T03:42:08.557Z,30.37
2018-09-14T03:44:12.114Z,33.97
2018-09-14T03:46:15.650Z,41.30
2018-09-14T03:48:19.747Z,34.43
2018-09-14T03:50:23.359Z,34.50
2018-09-14T03:52:26.864Z,35.87
2018-09-14T03:54:30.635Z,34.03
2018-09-14T03:56:34.198Z,31.90
2018-09-14T03:58:37.733Z,28.10
2018-09-14T04:00:41.326Z,30.63
2018-09-14T04:02:44.864Z,29.40
2018-09-14T04:04:49.095Z,28.43
2018-09-14T04:06:52.720Z,32.83
2018-09-14T04:08:56.365Z,29.97
2018-09-14T04:11:00.562Z,31.00
2018-09-14T04:13:04.200Z,28.87
2018-09-14T04:15:08.311Z,27.77
2018-09-14T04:17:13.155Z,31.27
2018-09-14T04:19:16.728Z,27.50
2018-09-14T04:21:20.223Z,23.93
2018-09-14T04:23:23.801Z,25.27
2018-09-14T04:25:27.526Z,23.07
2018-09-14T04:27:31.070Z,24.27
2018-09-14T04:29:34.628Z,21.87
2018-09-14T04:31:38.161Z,20.27
2018-09-14T04:33:41.656Z,22.13
2018-09-14T04:35:45.253Z,19.33
2018-09-14T04:37:48.757Z,17.70
2018-09-14T04:39:52.397Z,19.57
2018-09-14T04:41:56.209Z,17.57
2018-09-14T04:43:59.943Z,17.80
2018-09-14T04:46:04.421Z,18.93
2018-09-14T04:48:08.340Z,16.50
2018-09-14T04:50:12.107Z,15.33
2018-09-14T04:52:15.949Z,17.30
2018-09-14T04:54:19.705Z,19.33
2018-09-14T04:56:24.059Z,17.73
2018-09-14T04:58:28.113Z,18.27
2018-09-14T05:00:32.161Z,16.50
2018-09-14T05:02:37.033Z,17.47
2018-09-14T05:04:41.101Z,15.80
2018-09-14T05:06:44.816Z,15.97
2018-09-14T05:08:48.934Z,18.50
2018-09-14T05:10:52.683Z,19.23
2018-09-14T05:12:56.563Z,18.27
2018-09-14T05:15:00.222Z,17.60
2018-09-14T05:17:03.886Z,18.60
2018-09-14T05:19:08.534Z,15.90
2018-09-14T05:21:12.522Z,19.23
2018-09-14T05:23:17.101Z,17.97
2018-09-14T05:25:21.413Z,16.50
2018-09-14T05:27:25.137Z,18.77
2018-09-14T05:29:29.089Z,19.33
2018-09-14T05:31:32.739Z,18.30
2018-09-14T05:33:37.689Z,15.50
2018-09-14T05:35:41.997Z,18.57
2018-09-14T05:37:45.729Z,15.77
2018-09-14T05:39:49.536Z,17.40
2018-09-14T05:41:53.291Z,14.90
2018-09-14T05:43:56.964Z,15.07
2018-09-14T05:46:00.769Z,16.70
2018-09-14T05:48:04.939Z,16.73
2018-09-14T05:50:10.412Z,15.97
2018-09-14T05:52:14.397Z,16.87
2018-09-14T05:54:18.807Z,19.57
2018-09-14T05:56:23.961Z,14.27
2018-09-14T05:58:27.639Z,15.87
2018-09-14T06:00:33.693Z,17.30
2018-09-14T06:02:37.424Z,17.37
2018-09-14T06:04:42.591Z,16.57
2018-09-14T06:06:47.566Z,15.87
2018-09-14T06:08:51.385Z,14.63
2018-09-14T06:11:19.067Z,15.57
2018-09-14T06:13:23.522Z,16.63
2018-09-14T06:15:27.253Z,15.10
2018-09-14T06:17:31.358Z,20.90
2018-09-14T06:19:35.871Z,15.97
2018-09-14T06:21:40.268Z,16.03
2018-09-14T06:23:44.894Z,15.17
2018-09-14T06:25:51.078Z,16.07
2018-09-14T06:27:54.764Z,16.03
2018-09-14T06:29:58.658Z,15.90
2018-09-14T06:32:03.164Z,15.30
2018-09-14T06:34:07.347Z,14.27
2018-09-14T06:36:11.071Z,15.03
2018-09-14T06:38:15.011Z,14.40
2018-09-14T06:40:19.034Z,11.83
2018-09-14T06:42:23.183Z,14.93
2018-09-14T06:44:27.510Z,12.57
2018-09-14T06:46:33.321Z,13.00
2018-09-14T06:48:38.084Z,16.37
2018-09-14T06:50:43.187Z,16.07
2018-09-14T06:52:47.553Z,12.23
2018-09-14T06:54:52.123Z,11.67
2018-09-14T06:56:56.720Z,11.10
2018-09-14T06:59:01.772Z,11.73
2018-09-14T07:01:06.580Z,10.30
2018-09-14T07:03:11.637Z,10.83
2018-09-14T07:05:15.240Z,10.50
2018-09-14T07:07:18.807Z,10.50
2018-09-14T07:09:22.456Z,10.63
2018-09-14T07:11:26.508Z,8.73
2018-09-14T07:13:30.205Z,11.13
2018-09-14T07:15:33.941Z,9.87
2018-09-14T07:17:37.523Z,9.23
2018-09-14T07:19:43.932Z,8.10
2018-09-14T07:21:49.213Z,7.30
2018-09-14T07:23:55.349Z,6.33
2018-09-14T07:26:01.029Z,7.03
2018-09-14T07:28:06.988Z,7.33
2018-09-14T07:30:13.638Z,5.67
2018-09-14T07:32:17.361Z,5.97
2018-09-14T07:34:25.139Z,5.57
2018-09-14T07:36:28.960Z,5.77
2018-09-14T07:38:33.869Z,5.53
2018-09-14T07:40:37.453Z,6.87
2018-09-14T07:42:41.846Z,10.90
2018-09-14T07:44:45.437Z,10.23
2018-09-14T07:46:49.248Z,10.80
2018-09-14T07:48:53.120Z,9.93
2018-09-14T07:50:56.814Z,9.20
2018-09-14T07:53:01.267Z,10.77
2018-09-14T07:55:05.632Z,9.93
2018-09-14T07:57:09.717Z,12.40
2018-09-14T07:59:13.917Z,10.37
2018-09-14T08:01:17.648Z,11.57
2018-09-14T08:03:21.872Z,11.03
2018-09-14T08:05:25.872Z,10.43
2018-09-14T08:07:30.439Z,7.90
2018-09-14T08:09:34.248Z,11.67
2018-09-14T08:11:38.194Z,8.87
2018-09-14T08:13:42.317Z,11.10
2018-09-14T08:15:46.012Z,12.07
2018-09-14T08:17:49.764Z,9.00
2018-09-14T08:19:54.640Z,8.03
2018-09-14T08:22:06.115Z,7.20
2018-09-14T08:24:10.644Z,8.67
2018-09-14T08:26:19.896Z,9.73
2018-09-14T08:28:23.949Z,7.83
2018-09-14T08:30:31.537Z,7.53
2018-09-14T08:32:35.816Z,8.63
2018-09-14T08:34:40.561Z,7.03
2018-09-14T08:36:44.728Z,4.80
2018-09-14T08:38:48.495Z,6.80
2018-09-14T08:40:52.200Z,6.13
2018-09-14T08:42:55.787Z,7.20
2018-09-14T08:45:00.783Z,7.83
2018-09-14T08:47:04.510Z,8.83
2018-09-14T08:49:09.285Z,8.33
2018-09-14T08:51:13.307Z,7.70
2018-09-14T08:53:16.955Z,8.87
2018-09-14T08:55:20.611Z,6.73
2018-09-14T08:57:24.306Z,7.47
2018-09-14T08:59:27.934Z,8.17
2018-09-14T09:01:32.247Z,9.87
2018-09-14T09:03:37.349Z,9.27
2018-09-14T09:05:42.354Z,8.07
2018-09-14T09:07:50.835Z,9.20
2018-09-14T09:09:54.840Z,8.20
2018-09-14T09:12:00.924Z,9.33
2018-09-14T09:14:04.621Z,8.50
2018-09-14T09:16:09.064Z,6.07
2018-09-14T09:18:13.369Z,8.10
2018-09-14T09:20:19.333Z,6.97
2018-09-14T09:22:23.322Z,7.60
2018-09-14T09:24:28.172Z,8.13
2018-09-14T09:26:31.856Z,7.00
2018-09-14T09:28:35.736Z,8.10
2018-09-14T09:30:39.841Z,6.87
2018-09-14T09:32:43.928Z,7.63
2018-09-14T09:34:48.160Z,6.57
2018-09-14T09:36:52.948Z,8.20
2018-09-14T09:38:56.753Z,8.40
2018-09-14T09:41:00.556Z,7.20
2018-09-14T09:43:04.348Z,7.10
2018-09-14T09:45:08.092Z,7.57
2018-09-14T09:47:11.695Z,8.27
2018-09-14T09:49:15.351Z,7.33
2018-09-14T09:51:19.099Z,6.13
2018-09-14T09:53:23.412Z,6.67
2018-09-14T09:55:27.047Z,6.80
2018-09-14T09:57:31.879Z,7.40
2018-09-14T09:59:35.611Z,6.50
2018-09-14T10:01:47.110Z,7.73
2018-09-14T10:03:56.398Z,7.80
2018-09-14T10:06:05.557Z,5.50
2018-09-14T10:08:09.320Z,4.33
2018-09-14T10:10:13.301Z,7.23
2018-09-14T10:12:20.632Z,5.37
2018-09-14T10:14:24.928Z,6.03
2018-09-14T10:16:28.656Z,5.07
2018-09-14T10:18:32.533Z,4.47
2018-09-14T10:20:40.539Z,4.87
2018-09-14T10:22:49.760Z,6.20
2018-09-14T10:24:54.757Z,4.90
2018-09-14T10:26:58.562Z,5.03
2018-09-14T10:29:07.067Z,6.00
2018-09-14T10:31:11.309Z,4.40
2018-09-14T10:33:14.894Z,5.67
2018-09-14T10:35:18.442Z,4.87
2018-09-14T10:37:22.499Z,4.47
2018-09-14T10:39:28.360Z,4.67
2018-09-14T10:41:31.982Z,4.70
2018-09-14T10:43:35.644Z,4.57
2018-09-14T10:45:39.208Z,5.30
2018-09-14T10:47:42.834Z,5.97
2018-09-14T10:49:46.484Z,3.83
2018-09-14T10:51:50.189Z,4.93
2018-09-14T10:54:00.383Z,4.30
2018-09-14T10:56:04.069Z,5.83
2018-09-14T10:58:07.827Z,4.73
2018-09-14T11:00:12.380Z,4.77
2018-09-14T11:02:15.931Z,4.60
2018-09-14T11:04:20.083Z,4.63
2018-09-14T11:06:24.238Z,7.53
2018-09-14T11:08:28.891Z,4.03
2018-09-14T11:10:32.548Z,4.50
2018-09-14T11:12:36.303Z,3.80
2018-09-14T11:14:39.997Z,4.27
2018-09-14T11:16:44.078Z,6.53
2018-09-14T11:18:49.011Z,3.57
2018-09-14T11:20:53.701Z,5.00
2018-09-14T11:23:16.305Z,13.27
2018-09-14T11:25:28.411Z,5.33
2018-09-14T11:27:35.345Z,7.23
2018-09-14T11:29:41.286Z,5.27
2018-09-14T11:31:50.062Z,5.87
2018-09-14T11:33:54.116Z,3.67
2018-09-14T11:35:57.637Z,4.40
2018-09-14T11:38:01.401Z,2.77
2018-09-14T11:40:05.091Z,2.37
2018-09-14T11:42:09.068Z,2.93
2018-09-14T11:44:12.750Z,2.23
2018-09-14T11:46:17.076Z,2.57
2018-09-14T11:48:24.141Z,2.67
2018-09-14T11:50:27.693Z,1.83
2018-09-14T11:52:31.416Z,2.83
2018-09-14T11:54:35.218Z,2.60
2018-09-14T11:56:38.717Z,1.97
2018-09-14T11:58:42.305Z,2.63
2018-09-14T12:00:46.113Z,2.57
2018-09-14T12:02:49.770Z,3.27
2018-09-14T12:04:54.659Z,2.70
2018-09-14T12:06:58.167Z,4.40
2018-09-14T12:09:01.930Z,2.10
2018-09-14T12:11:05.580Z,1.80
2018-09-14T12:13:09.325Z,2.73
2018-09-14T12:15:12.998Z,1.90
2018-09-14T12:17:16.576Z,2.23
2018-09-14T12:19:20.120Z,3.50
2018-09-14T12:21:24.275Z,2.97
2018-09-14T12:23:27.852Z,1.97
2018-09-14T12:25:31.441Z,1.33
2018-09-14T12:27:34.980Z,1.60
2018-09-14T12:29:38.506Z,1.87
2018-09-14T12:31:41.989Z,1.50
2018-09-14T12:33:45.558Z,2.30
2018-09-14T12:35:49.206Z,1.67
2018-09-14T12:37:52.917Z,1.67
2018-09-14T12:39:57.017Z,1.87
2018-09-14T12:42:00.551Z,1.50
2018-09-14T12:44:04.243Z,1.93
2018-09-14T12:46:08.259Z,1.47
2018-09-14T12:48:12.803Z,1.50
2018-09-14T12:50:16.819Z,1.90
2018-09-14T12:52:20.330Z,1.93
2018-09-14T12:54:23.828Z,1.40
2018-09-14T12:56:27.399Z,2.23
2018-09-14T12:58:31.044Z,1.30
2018-09-14T13:00:34.535Z,1.40
2018-09-14T13:02:38.027Z,1.37
2018-09-14T13:04:41.506Z,1.53
2018-09-14T13:06:45.082Z,1.73
2018-09-14T13:08:50.286Z,2.00
2018-09-14T13:10:53.875Z,1.50
2018-09-14T13:12:57.369Z,1.37
2018-09-14T13:15:00.998Z,2.00
2018-09-14T13:17:09.164Z,1.37
2018-09-14T13:19:12.639Z,1.67
2018-09-14T13:21:16.169Z,1.77
2018-09-14T13:23:19.675Z,2.30
2018-09-14T13:25:23.150Z,3.63
2018-09-14T13:27:26.653Z,1.40
2018-09-14T13:29:30.157Z,2.13
2018-09-14T13:31:33.671Z,1.57
2018-09-14T13:33:37.207Z,2.67
2018-09-14T13:35:40.938Z,2.27
2018-09-14T13:37:44.499Z,2.17
2018-09-14T13:39:48.013Z,1.80
2018-09-14T13:41:51.552Z,2.07
2018-09-14T13:43:55.092Z,1.90
2018-09-14T13:45:58.661Z,1.80
2018-09-14T13:48:02.184Z,1.97
2018-09-14T13:50:05.817Z,2.10
2018-09-14T13:52:09.331Z,2.33
2018-09-14T13:54:12.824Z,2.30
2018-09-14T13:56:22.667Z,2.20
2018-09-14T13:58:26.217Z,2.33
2018-09-14T14:00:29.764Z,2.03
2018-09-14T14:02:33.477Z,2.47
2018-09-14T14:04:37.393Z,1.87
2018-09-14T14:06:41.340Z,2.10
2018-09-14T14:08:44.890Z,2.47
2018-09-14T14:10:48.613Z,2.87
2018-09-14T14:12:52.103Z,1.93
2018-09-14T14:14:55.705Z,2.43
2018-09-14T14:16:59.362Z,2.60
2018-09-14T14:19:03.337Z,2.47
2018-09-14T14:21:06.969Z,2.63
2018-09-14T14:23:10.793Z,2.50
2018-09-14T14:25:14.474Z,1.90
2018-09-14T14:27:17.985Z,2.90
2018-09-14T14:29:21.552Z,2.80
2018-09-14T14:31:25.070Z,2.50
2018-09-14T14:33:28.578Z,2.57
2018-09-14T14:35:32.117Z,2.20
2018-09-14T14:37:35.675Z,2.10
2018-09-14T14:39:39.220Z,2.07
2018-09-14T14:41:42.767Z,2.40
2018-09-14T14:43:46.286Z,2.23
2018-09-14T14:45:49.847Z,2.57
2018-09-14T14:47:53.436Z,2.07
2018-09-14T14:49:57.003Z,3.10
2018-09-14T14:52:00.552Z,2.53
2018-09-14T14:54:04.267Z,2.30
2018-09-14T14:56:07.945Z,2.53
2018-09-14T14:58:11.417Z,3.13
2018-09-14T15:00:14.951Z,2.97
2018-09-14T15:02:18.491Z,2.30
2018-09-14T15:04:22.034Z,2.63
2018-09-14T15:06:25.614Z,3.00
2018-09-14T15:08:29.139Z,2.90
2018-09-14T15:10:32.759Z,2.63
2018-09-14T15:12:36.296Z,4.50
2018-09-14T15:14:39.852Z,2.63
2018-09-14T15:16:43.378Z,3.00
2018-09-14T15:18:46.883Z,4.07
2018-09-14T15:20:50.481Z,4.10
2018-09-14T15:22:54.021Z,2.70
2018-09-14T15:24:57.545Z,3.30
2018-09-14T15:27:01.127Z,2.60
2018-09-14T15:29:04.669Z,2.60
2018-09-14T15:31:08.216Z,3.80
2018-09-14T15:33:11.843Z,3.10
2018-09-14T15:35:15.553Z,3.07
2018-09-14T15:37:19.141Z,2.47
2018-09-14T15:39:22.707Z,2.53
2018-09-14T15:41:26.301Z,2.90
2018-09-14T15:43:29.842Z,3.40
2018-09-14T15:45:33.472Z,3.73
2018-09-14T15:47:37.224Z,4.07
2018-09-14T15:49:40.802Z,2.90
2018-09-14T15:51:44.343Z,3.73
2018-09-14T15:53:47.888Z,3.70
2018-09-14T15:55:51.454Z,4.00
2018-09-14T15:57:54.984Z,4.37
2018-09-14T15:59:58.483Z,3.70
2018-09-14T16:02:02.037Z,3.63
2018-09-14T16:04:05.610Z,5.30
2018-09-14T16:06:09.168Z,4.60
2018-09-14T16:08:12.683Z,4.70
2018-09-14T16:10:16.532Z,4.23
2018-09-14T16:12:20.124Z,5.27
2018-09-14T16:14:23.652Z,4.20
2018-09-14T16:16:27.170Z,4.37
2018-09-14T16:18:30.729Z,3.70
2018-09-14T16:20:34.262Z,3.77
2018-09-14T16:22:37.790Z,5.33
2018-09-14T16:24:41.283Z,6.37
2018-09-14T16:26:44.846Z,5.67
2018-09-14T16:28:48.349Z,4.43
2018-09-14T16:30:51.867Z,4.43
2018-09-14T16:32:55.394Z,4.70
2018-09-14T16:34:59.004Z,3.83
2018-09-14T16:37:02.661Z,4.70
2018-09-14T16:39:09.538Z,6.53
2018-09-14T16:41:13.053Z,7.17
2018-09-14T16:43:16.564Z,6.47
2018-09-14T16:45:20.047Z,4.73
2018-09-14T16:47:23.614Z,4.47
2018-09-14T16:49:27.171Z,5.17
2018-09-14T16:51:30.749Z,3.70
2018-09-14T16:53:34.461Z,4.07
2018-09-14T16:55:37.956Z,3.53
2018-09-14T16:57:41.478Z,3.60
2018-09-14T16:59:45.347Z,4.33
2018-09-14T17:01:48.879Z,3.63
2018-09-14T17:03:52.684Z,3.87
2018-09-14T17:05:56.202Z,4.37
2018-09-14T17:07:59.762Z,4.47
2018-09-14T17:10:03.277Z,5.87
2018-09-14T17:12:06.868Z,3.53
2018-09-14T17:14:10.459Z,4.00
2018-09-14T17:16:14.010Z,3.43
2018-09-14T17:18:17.579Z,3.33
2018-09-14T17:20:21.077Z,3.53
2018-09-14T17:22:24.563Z,4.30
2018-09-14T17:24:28.130Z,4.30
2018-09-14T17:26:31.659Z,5.17
2018-09-14T17:28:35.184Z,4.13
2018-09-14T17:30:38.746Z,3.47
2018-09-14T17:32:42.248Z,4.73
2018-09-14T17:34:45.783Z,4.33
2018-09-14T17:36:49.261Z,3.97
2018-09-14T17:38:52.817Z,4.33
2018-09-14T17:40:56.348Z,3.90
2018-09-14T17:42:59.904Z,4.50
2018-09-14T17:45:03.480Z,4.60
2018-09-14T17:47:07.417Z,4.13
2018-09-14T17:49:11.001Z,4.67
2018-09-14T17:51:14.572Z,3.90
2018-09-14T17:53:18.165Z,4.20
2018-09-14T17:55:21.685Z,4.73
2018-09-14T17:57:25.224Z,4.87
2018-09-14T17:59:28.936Z,3.83
2018-09-14T18:01:32.468Z,4.07
2018-09-14T18:03:35.980Z,5.10
2018-09-14T18:05:39.462Z,5.17
2018-09-14T18:07:42.999Z,5.50
2018-09-14T18:09:46.507Z,5.63
2018-09-14T18:11:50.053Z,5.00
2018-09-14T18:13:53.572Z,5.40
2018-09-14T18:15:57.056Z,4.80
2018-09-14T18:18:00.585Z,6.17
2018-09-14T18:20:04.488Z,7.13
2018-09-14T18:22:08.060Z,6.43
2018-09-14T18:24:11.740Z,5.83
2018-09-14T18:26:15.249Z,6.33
2018-09-14T18:28:18.779Z,9.10
2018-09-14T18:30:22.277Z,8.13
2018-09-14T18:32:25.784Z,7.37
2018-09-14T18:34:29.338Z,8.87
2018-09-14T18:36:32.892Z,8.90
2018-09-14T18:38:36.820Z,10.97
2018-09-14T18:40:40.332Z,11.80
2018-09-14T18:42:43.828Z,10.00
2018-09-14T18:44:47.356Z,9.87
2018-09-14T18:46:50.957Z,7.87
2018-09-14T18:48:54.562Z,11.37
2018-09-14T18:50:58.088Z,7.97
2018-09-14T18:53:01.605Z,7.90
2018-09-14T18:55:05.323Z,7.40
2018-09-14T18:57:09.557Z,9.07
2018-09-14T18:59:13.071Z,8.83
2018-09-14T19:01:16.944Z,8.90
2018-09-14T19:03:20.473Z,10.23
2018-09-14T19:05:24.325Z,11.87
2018-09-14T19:07:27.941Z,8.10
2018-09-14T19:09:31.525Z,6.73
2018-09-14T19:11:35.019Z,6.87
2018-09-14T19:13:38.512Z,7.47
2018-09-14T19:15:42.038Z,7.60
2018-09-14T19:17:45.528Z,8.30
2018-09-14T19:19:49.096Z,11.40
2018-09-14T19:21:52.564Z,9.97
2018-09-14T19:23:56.120Z,7.50
2018-09-14T19:26:00.171Z,9.53
2018-09-14T19:28:10.128Z,8.23
2018-09-14T19:30:13.797Z,9.00
2018-09-14T19:32:17.305Z,10.27
2018-09-14T19:34:20.873Z,9.20
2018-09-14T19:36:24.440Z,8.13
2018-09-14T19:38:28.105Z,8.07
2018-09-14T19:40:31.768Z,8.97
2018-09-14T19:42:35.259Z,9.93
2018-09-14T19:44:38.870Z,8.23
2018-09-14T19:46:42.455Z,8.33
2018-09-14T19:48:45.999Z,7.37
2018-09-14T19:50:49.523Z,7.43
2018-09-14T19:52:53.061Z,6.63
2018-09-14T19:54:56.648Z,7.73
2018-09-14T19:57:00.373Z,7.00
2018-09-14T19:59:03.948Z,7.20
2018-09-14T20:01:07.604Z,6.87
2018-09-14T20:03:11.226Z,7.00
2018-09-14T20:05:14.775Z,7.97
2018-09-14T20:07:18.230Z,6.70
2018-09-14T20:09:21.735Z,9.30
2018-09-14T20:11:25.226Z,11.40
2018-09-14T20:13:28.804Z,8.37
2018-09-14T20:15:32.367Z,8.20
2018-09-14T20:17:35.861Z,9.93
2018-09-14T20:19:39.374Z,8.37
2018-09-14T20:21:42.906Z,10.77
2018-09-14T20:23:46.449Z,7.90
2018-09-14T20:25:50.023Z,7.80
2018-09-14T20:27:53.555Z,7.80
2018-09-14T20:29:57.042Z,8.83
2018-09-14T20:32:00.976Z,9.57
2018-09-14T20:34:04.926Z,8.10
2018-09-14T20:36:08.418Z,7.77
2018-09-14T20:38:11.983Z,7.43
2018-09-14T20:40:15.556Z,10.40
2018-09-14T20:42:19.039Z,8.93
2018-09-14T20:44:22.531Z,9.43
2018-09-14T20:46:26.062Z,9.40
2018-09-14T20:48:29.588Z,11.77
2018-09-14T20:50:33.143Z,8.17
2018-09-14T20:52:36.659Z,9.47
2018-09-14T20:54:40.160Z,9.77
2018-09-14T20:56:43.658Z,12.23
2018-09-14T20:58:47.473Z,12.33
2018-09-14T21:00:51.189Z,9.13
2018-09-14T21:02:55.171Z,10.23
2018-09-14T21:04:58.691Z,10.83
2018-09-14T21:07:02.343Z,11.23
2018-09-14T21:09:08.180Z,8.23
2018-09-14T21:11:11.731Z,10.93
2018-09-14T21:13:15.232Z,8.40
2018-09-14T21:15:18.781Z,11.70
2018-09-14T21:17:22.286Z,8.47
2018-09-14T21:19:25.921Z,8.80
2018-09-14T21:21:29.440Z,8.23
2018-09-14T21:23:33.017Z,8.80
2018-09-14T21:25:36.483Z,8.60
2018-09-14T21:27:40.003Z,9.13
2018-09-14T21:29:43.576Z,10.57
2018-09-14T21:31:47.149Z,9.37
2018-09-14T21:33:50.702Z,10.70
2018-09-14T21:35:54.200Z,8.70
2018-09-14T21:37:57.790Z,9.03
2018-09-14T21:40:01.293Z,8.30
2018-09-14T21:42:05.014Z,9.07
2018-09-14T21:44:09.005Z,8.43
2018-09-14T21:46:12.561Z,12.33
2018-09-14T21:48:16.078Z,8.30
2018-09-14T21:50:19.766Z,9.17
2018-09-14T21:52:23.315Z,8.97
2018-09-14T21:54:26.786Z,8.97
2018-09-14T21:56:30.311Z,7.57
2018-09-14T21:58:33.813Z,8.90
2018-09-14T22:00:49.371Z,8.80
2018-09-14T22:02:52.919Z,9.50
2018-09-14T22:04:56.467Z,8.50
2018-09-14T22:07:00.032Z,9.30
2018-09-14T22:09:05.088Z,10.13
2018-09-14T22:11:08.628Z,9.27
2018-09-14T22:13:12.192Z,10.97
2018-09-14T22:15:15.971Z,10.27
2018-09-14T22:17:19.572Z,8.60
2018-09-14T22:19:23.077Z,8.33
2018-09-14T22:21:26.665Z,8.73
2018-09-14T22:23:30.315Z,10.03
2018-09-14T22:25:33.832Z,9.63
2018-09-14T22:27:37.390Z,9.30
2018-09-14T22:29:40.935Z,8.77
2018-09-14T22:31:44.449Z,8.57
2018-09-14T22:33:48.048Z,11.77
2018-09-14T22:35:51.682Z,10.73
2018-09-14T22:37:55.246Z,9.37
2018-09-14T22:39:58.772Z,12.40
2018-09-14T22:42:02.331Z,8.97
2018-09-14T22:44:05.906Z,9.47
2018-09-14T22:46:09.371Z,9.67
2018-09-14T22:48:13.350Z,9.23
2018-09-14T22:50:16.896Z,11.43
2018-09-14T22:52:20.467Z,8.17
2018-09-14T22:54:23.939Z,8.60
2018-09-14T22:56:27.521Z,10.40
2018-09-14T22:58:31.023Z,9.77
2018-09-14T23:00:39.890Z,10.53
2018-09-14T23:02:43.408Z,9.80
2018-09-14T23:04:46.975Z,10.50
2018-09-14T23:06:51.036Z,10.43
2018-09-14T23:08:54.598Z,10.17
2018-09-14T23:10:58.091Z,11.33
2018-09-14T23:13:01.733Z,10.27
2018-09-14T23:15:05.367Z,10.30
2018-09-14T23:17:08.895Z,15.27
2018-09-14T23:19:12.440Z,9.03
2018-09-14T23:21:15.979Z,11.10
2018-09-14T23:23:19.540Z,10.57
2018-09-14T23:25:23.242Z,10.27
2018-09-14T23:27:26.768Z,9.43
2018-09-14T23:29:30.340Z,9.00
2018-09-14T23:31:33.853Z,8.77
2018-09-14T23:33:37.404Z,9.93
2018-09-14T23:35:40.980Z,8.57
2018-09-14T23:37:44.507Z,8.63
2018-09-14T23:39:48.043Z,10.43
2018-09-14T23:41:51.561Z,11.27
2018-09-14T23:43:55.081Z,17.60
2018-09-14T23:45:58.648Z,12.97
2018-09-14T23:48:02.188Z,12.47
2018-09-14T23:50:06.497Z,10.50
2018-09-14T23:52:10.121Z,10.73
2018-09-14T23:54:13.708Z,13.03
2018-09-14T23:56:17.198Z,12.17
2018-09-14T23:58:20.793Z,13.40
